• Join FlightAware (Why Join?)
  • Login
  • US Flag 
03:41AM EST


 

Airport Tracker/Info


-or-


 

Live Flight TrackerFlight Track Log ✈ EJA396 ✈ 03-Oct-2013 ✈ KGSP - KTYQ

Flight Track Log - Related Links

Times and Time Zones

All times are in EDT time to prevent confusion due to time zone crossing. See the EJA396 flight status page for this flight to view local times or setup timezone preferences in your user account.

Time Position Orientation Groundspeed Altitude Reporting Facility
EDT Latitude Longitude Course Direction KTS MPH feet Rate Location/Type
03:24PM 34.8736 -82.3172 304° West 272 313 32,000  Level Atlanta Center
03:25PM 34.9247 -82.3947 309° West 272 313 11,800 -8,400 Descending Atlanta Center
03:26PM 34.9803 -82.4797 309° West 296 341 15,200 3,180 Climbing Atlanta Center
03:27PM 35.0397 -82.5675 310° West 322 371 18,200 2,700 Climbing Atlanta Center
03:28PM 35.1033 -82.6628 309° West 343 395 20,700 2,040 Climbing Atlanta Center
03:29PM 35.4833 -82.6484 304° West  Level Estimated
03:29PM 35.1692 -82.7633 309° West 363 418 22,300  Level Atlanta Center
03:30PM 35.2392 -82.8689 309° West 381 438 23,900 1,800 Climbing Atlanta Center
03:31PM 35.3175 -82.9928 308° West 407 468 25,900 1,860 Climbing Atlanta Center
03:32PM 35.3914 -83.1011 310° West 420 483 27,700 1,800 Climbing Atlanta Center
03:33PM 35.4631 -83.2125 308° West 420 483 29,500 1,800 Climbing Atlanta Center
03:34PM 35.5389 -83.3267 309° West 420 483 31,300 1,200 Climbing Atlanta Center
03:35PM 35.6125 -83.4411 308° West 420 483 32,000 300 Climbing Atlanta Center
03:36PM 35.6881 -83.5581 309° West 425 489 32,000  Level Atlanta Center
03:37PM 35.7636 -83.6778 308° West 431 496 32,000  Level Atlanta Center
03:38PM 35.8411 -83.7981 309° West 436 502 32,000  Level Atlanta Center
03:39PM 35.9247 -83.9106 313° West 442 509 32,000  Level Atlanta Center
03:40PM 36.0311 -83.9900 329° Northwest 442 509 32,000  Level Atlanta Center
03:42PM 36.1581 -84.0825 330° Northwest 459 528 32,000  Level Indianapolis Center
03:43PM 36.2617 -84.1700 326° Northwest 455 524 32,000  Level Indianapolis Center
03:44PM 36.3647 -84.2611 325° Northwest 456 525 32,000  Level Indianapolis Center
03:45PM 36.4683 -84.3503 325° Northwest 454 522 32,000  Level Indianapolis Center
03:46PM 36.5792 -84.4481 325° Northwest 456 525 32,000  Level Indianapolis Center
03:47PM 36.6978 -84.5478 326° Northwest 458 527 32,000  Level Indianapolis Center
03:48PM 36.8078 -84.6278 330° Northwest 460 529 32,000  Level Indianapolis Center
03:49PM 36.9203 -84.7019 332° Northwest 459 528 32,000  Level Indianapolis Center
03:50PM 37.0500 -84.7567 341° North 460 529 32,000  Level Indianapolis Center
03:51PM 37.1728 -84.8100 341° North 463 533 32,000  Level Indianapolis Center
03:52PM 37.2953 -84.8625 341° North 463 533 32,000  Level Indianapolis Center
03:53PM 37.4253 -84.8831 353° North 468 539 32,000  Level Indianapolis Center
03:54PM 37.5558 -84.9036 353° North 470 541 32,000  Level Indianapolis Center
03:55PM 37.7064 -84.9311 352° North 468 539 32,000  Level Indianapolis Center
03:56PM 37.8367 -84.9528 353° North 469 540 32,000  Level Indianapolis Center
03:57PM 37.9689 -84.9739 353° North 476 548 32,000  Level Indianapolis Center
03:58PM 38.0942 -85.0172 345° North 466 536 32,000 -480 Level Indianapolis Center
03:59PM 38.2106 -85.0861 335° Northwest 460 529 31,100 -1,620 Descending Indianapolis Center
04:00PM 38.3228 -85.1586 333° Northwest 453 521 28,700 -2,400 Descending Indianapolis Center
04:01PM 38.4364 -85.2286 334° Northwest 445 512 26,200 -2,280 Descending Indianapolis Center
04:02PM 38.5425 -85.2944 334° Northwest 426 490 24,100 -1,080 Descending Indianapolis Center
04:03PM 38.6767 -85.3725 336° Northwest 434 499 24,000 -60 Descending Indianapolis Center
04:04PM 38.7869 -85.4375 335° Northwest 439 505 24,000 -1,020 Level Indianapolis Center
04:05PM 38.8881 -85.4997 334° Northwest 408 470 21,900 -2,640 Descending Indianapolis Center
04:06PM 38.9853 -85.5625 333° Northwest 394 453 18,500 -2,940 Descending Indianapolis Center
04:07PM 39.0831 -85.6256 333° Northwest 395 455 15,800 -2,520 Descending Indianapolis Center
04:08PM 39.1711 -85.6833 333° Northwest 368 423 13,300 -2,700 Descending Indianapolis Center
04:09PM 39.2778 -85.7533 333° Northwest 362 417 10,300 -1,620 Descending Indianapolis Center
04:11PM 39.3603 -85.8069 333° Northwest 344 396 10,000 -180 Descending Indianapolis Center
04:12PM 39.4431 -85.8639 332° Northwest 339 390 10,000 -240 Level Indianapolis Center
04:13PM 39.5042 -85.9300 320° Northwest 293 337 9,600 -1,140 Descending Indianapolis Center
04:14PM 39.5586 -85.9911 319° Northwest 271 312 7,700 -1,860 Descending Indianapolis Center
04:15PM 39.6117 -86.0669 312° West 244 281 5,800 -1,800 Descending Indianapolis Center
04:16PM 39.6600 -86.1147 323° Northwest 227 261 4,100 -900 Descending Indianapolis Center
04:17PM 39.7042 -86.1686 317° Northwest 219 252 4,000 -60 Descending Indianapolis Center
04:18PM 39.7422 -86.2331 308° West 225 259 4,000  Level Indianapolis Center
04:19PM 39.7803 -86.3067 304° West 219 252 4,000  Level Indianapolis Center
04:20PM 39.8133 -86.3550 312° West 206 237 4,100  Climbing Indianapolis Center
04:21PM 39.8572 -86.4017 321° Northwest 204 235 4,000 -60 Descending Indianapolis Center
04:22PM 39.9017 -86.4511 320° Northwest 207 238 4,000  Level Indianapolis Center
04:23PM 39.9469 -86.4994 321° Northwest 209 241 4,000 -540 Level Indianapolis Center
04:24PM 39.9869 -86.4553 40° Northeast 223 257 3,000 -540 Descending Indianapolis Center
04:25PM 39.9836 -86.3719 93° East 226 260 3,000 -360 Level Indianapolis Center
04:26PM 39.9847 -86.2911 89° East 223 257 2,300 -780 Descending Indianapolis Center
04:27PM 40.0089 -86.2514 52° Northeast 170 196 1,400 -540 Descending Indianapolis Center
04:28PM 40.0400 -86.2506 North 158 182 1,200 -240 Descending Indianapolis Center